Time;durP1;ratioP1;P1;durP2;ratioP2;P2;SDS_P1;SDS_P2;PMS_P1;PMS_P2;Temp;Humidity;BMP_temperature;BMP_pressure;BME280_temperature;BME280_humidity;BME280_pressure;Samples;Min_cycle;Max_cycle;Signal;HPM_P1;HPM_P2
2023/06/20 00:00:06;;;;;;;11.48;7.85;;;17.40;99.90;;;;;;5144861;27;20500;-65
2023/06/20 00:02:32;;;;;;;11.80;7.80;;;17.40;99.90;;;;;;5104572;27;20075;-66
2023/06/20 00:05:00;;;;;;;9.13;7.95;;;17.40;99.90;;;;;;5144272;27;20473;-67
2023/06/20 00:07:26;;;;;;;11.10;7.70;;;17.40;99.90;;;;;;5130463;27;20039;-66
2023/06/20 00:09:51;;;;;;;9.40;7.55;;;17.50;99.90;;;;;;5127902;27;20035;-64
2023/06/20 00:12:17;;;;;;;9.50;7.90;;;17.50;99.90;;;;;;5126074;27;20039;-66
2023/06/20 00:14:42;;;;;;;11.52;8.43;;;17.50;99.90;;;;;;5117551;27;20417;-65
2023/06/20 00:17:08;;;;;;;10.27;8.20;;;17.50;99.90;;;;;;5103089;27;20118;-64
2023/06/20 00:19:34;;;;;;;10.70;8.35;;;17.50;99.90;;;;;;5118513;27;20039;-65
2023/06/20 00:22:02;;;;;;;10.00;7.90;;;17.50;99.90;;;;;;5114712;27;20054;-65
2023/06/20 00:24:32;;;;;;;9.32;8.25;;;17.50;99.90;;;;;;5115418;27;20488;-65
2023/06/20 00:26:59;;;;;;;8.82;7.68;;;17.50;99.90;;;;;;5115047;27;20043;-65
2023/06/20 00:29:25;;;;;;;12.43;7.45;;;17.50;99.90;;;;;;5121333;27;20397;-65
2023/06/20 00:31:51;;;;;;;12.27;8.27;;;17.60;99.90;;;;;;5115309;27;20042;-65
2023/06/20 00:34:16;;;;;;;10.15;7.78;;;17.60;99.90;;;;;;5122852;27;20078;-65
2023/06/20 00:36:42;;;;;;;8.18;7.35;;;17.60;99.90;;;;;;5129081;27;20053;-66
2023/06/20 00:39:08;;;;;;;11.02;8.65;;;17.60;99.90;;;;;;5117944;27;20416;-66
2023/06/20 00:41:33;;;;;;;10.57;7.70;;;17.70;99.90;;;;;;5114658;27;20035;-66
2023/06/20 00:44:05;;;;;;;12.98;9.32;;;17.70;99.90;;;;;;5132977;27;20035;-65
2023/06/20 00:46:40;;;;;;;10.30;8.55;;;17.70;99.90;;;;;;5114814;27;20458;-65
2023/06/20 00:49:06;;;;;;;11.52;8.25;;;17.70;99.90;;;;;;5114315;27;20051;-65
2023/06/20 00:51:34;;;;;;;10.00;8.30;;;17.70;99.90;;;;;;5129845;27;20038;-66
2023/06/20 00:54:00;;;;;;;10.95;8.55;;;17.70;99.90;;;;;;5134719;27;20082;-65
2023/06/20 00:56:26;;;;;;;9.82;8.27;;;17.70;99.90;;;;;;5121213;27;20485;-65
2023/06/20 00:58:52;;;;;;;10.15;8.50;;;17.70;99.90;;;;;;5113695;27;20051;-66
2023/06/20 01:01:19;;;;;;;11.20;8.30;;;17.70;99.90;;;;;;5125595;27;20393;-66
2023/06/20 01:03:48;;;;;;;11.30;7.45;;;17.80;99.90;;;;;;5134743;27;20034;-66
2023/06/20 01:06:43;;;;;;;10.35;7.25;;;17.80;99.90;;;;;;5123959;27;20034;-66
2023/06/20 01:09:44;;;;;;;8.50;7.03;;;17.80;99.90;;;;;;5101952;27;20042;-66
2023/06/20 01:12:17;;;;;;;14.20;7.15;;;17.80;99.90;;;;;;5118266;27;20035;-65
2023/06/20 01:15:22;;;;;;;12.73;6.75;;;17.80;99.90;;;;;;5119626;27;20442;-65
2023/06/20 01:18:15;;;;;;;7.90;6.50;;;17.80;99.90;;;;;;5051596;28;20053;-67
2023/06/20 01:20:50;;;;;;;8.45;5.95;;;17.80;99.90;;;;;;4954638;28;20093;-66
2023/06/20 01:23:25;;;;;;;7.85;5.57;;;17.80;99.90;;;;;;4953835;28;20061;-67
2023/06/20 01:26:19;;;;;;;8.15;6.25;;;17.90;99.90;;;;;;4934035;29;20126;-67
2023/06/20 01:28:50;;;;;;;7.82;6.13;;;17.90;99.90;;;;;;4952097;28;20388;-67
2023/06/20 01:31:28;;;;;;;10.27;7.18;;;17.90;99.90;;;;;;4969104;28;20134;-65
2023/06/20 01:34:21;;;;;;;7.88;6.65;;;17.90;99.90;;;;;;4966838;28;20050;-66
2023/06/20 01:37:16;;;;;;;10.27;7.15;;;17.90;99.90;;;;;;4931925;29;20087;-65
2023/06/20 01:39:47;;;;;;;9.30;7.45;;;17.90;99.90;;;;;;4933091;29;20060;-65
2023/06/20 01:42:15;;;;;;;9.35;6.82;;;17.90;99.90;;;;;;4949757;29;20054;-65
2023/06/20 01:44:41;;;;;;;10.52;7.40;;;17.90;99.90;;;;;;4934981;29;20057;-68
2023/06/20 01:47:09;;;;;;;12.90;7.70;;;17.90;99.90;;;;;;4934673;29;20043;-65
2023/06/20 01:49:37;;;;;;;7.95;7.00;;;17.90;99.90;;;;;;4934566;29;20522;-65
2023/06/20 01:52:03;;;;;;;10.10;7.85;;;17.90;99.90;;;;;;4934577;29;20050;-66
2023/06/20 01:54:31;;;;;;;11.50;8.10;;;17.90;99.90;;;;;;4999657;28;20089;-66
2023/06/20 01:56:58;;;;;;;9.35;7.30;;;17.90;99.90;;;;;;4991126;28;20056;-66
2023/06/20 01:59:25;;;;;;;9.32;7.43;;;17.90;99.90;;;;;;5043034;28;20090;-66
2023/06/20 02:01:53;;;;;;;14.48;8.02;;;17.90;99.90;;;;;;5014612;28;20151;-65
2023/06/20 02:04:20;;;;;;;8.90;8.00;;;17.90;99.90;;;;;;5041927;28;20380;-65
2023/06/20 02:06:48;;;;;;;10.63;8.85;;;17.90;99.90;;;;;;5048665;28;20251;-65
2023/06/20 02:09:16;;;;;;;11.68;8.30;;;17.90;99.90;;;;;;5036454;28;20081;-65
2023/06/20 02:11:43;;;;;;;10.88;8.32;;;17.90;99.90;;;;;;5032730;28;20490;-65
2023/06/20 02:14:10;;;;;;;12.32;8.10;;;17.90;99.90;;;;;;5103391;27;20574;-66
2023/06/20 02:16:36;;;;;;;10.63;9.18;;;17.80;99.90;;;;;;5102835;27;20059;-65
2023/06/20 02:19:03;;;;;;;14.60;9.55;;;17.80;99.90;;;;;;5131831;27;20503;-67
2023/06/20 02:21:32;;;;;;;13.80;9.88;;;17.80;99.90;;;;;;5131433;27;20473;-66
2023/06/20 02:23:59;;;;;;;10.55;8.55;;;17.80;99.90;;;;;;5118273;27;20038;-65
2023/06/20 02:26:34;;;;;;;11.18;9.63;;;17.80;99.90;;;;;;5120710;27;20039;-67
2023/06/20 02:29:05;;;;;;;13.18;9.75;;;17.80;99.90;;;;;;5115785;27;20152;-65
2023/06/20 02:31:39;;;;;;;14.57;9.63;;;17.80;99.90;;;;;;5127842;27;20034;-65
2023/06/20 02:34:09;;;;;;;14.00;9.80;;;17.80;99.90;;;;;;5124461;27;20039;-65
2023/06/20 02:36:36;;;;;;;11.77;10.15;;;17.80;99.90;;;;;;5122747;27;20095;-66
2023/06/20 02:39:04;;;;;;;11.95;10.52;;;17.80;99.90;;;;;;5118353;27;20043;-65
2023/06/20 02:41:30;;;;;;;10.98;9.68;;;17.80;99.90;;;;;;5128586;27;20396;-66
2023/06/20 02:43:56;;;;;;;14.02;10.27;;;17.70;99.90;;;;;;5116362;27;20046;-66
2023/06/20 02:46:37;;;;;;;12.68;10.00;;;17.70;99.90;;;;;;5117058;27;20031;-64
2023/06/20 02:49:17;;;;;;;12.65;10.00;;;17.70;99.90;;;;;;5131394;27;20047;-66
2023/06/20 02:52:04;;;;;;;12.90;10.07;;;17.70;99.90;;;;;;5096742;27;20385;-65
2023/06/20 02:54:48;;;;;;;12.80;10.38;;;17.70;99.90;;;;;;5130297;27;20133;-65
2023/06/20 02:57:18;;;;;;;15.80;11.43;;;17.70;99.90;;;;;;5132378;27;20051;-64
2023/06/20 02:59:46;;;;;;;15.50;11.10;;;17.70;99.90;;;;;;5117525;27;20477;-65
2023/06/20 03:02:16;;;;;;;12.27;10.52;;;17.70;99.90;;;;;;5112222;27;20039;-65
2023/06/20 03:04:44;;;;;;;13.00;10.40;;;17.70;99.90;;;;;;5112414;27;20386;-65
2023/06/20 03:07:10;;;;;;;13.52;10.52;;;17.70;99.90;;;;;;5119927;27;20392;-65
2023/06/20 03:09:37;;;;;;;13.48;11.68;;;17.70;99.90;;;;;;5123981;28;20083;-66
2023/06/20 03:12:04;;;;;;;14.00;11.63;;;17.70;99.90;;;;;;5112384;27;20116;-66
2023/06/20 03:14:31;;;;;;;13.60;10.77;;;17.70;99.90;;;;;;5113077;28;20574;-66
2023/06/20 03:16:57;;;;;;;15.80;11.90;;;17.70;99.90;;;;;;5131059;27;20117;-66
2023/06/20 03:19:22;;;;;;;15.80;11.90;;;17.70;99.90;;;;;;5115923;27;20516;-66
2023/06/20 03:21:48;;;;;;;15.30;11.95;;;17.70;99.90;;;;;;5112323;27;20043;-65
2023/06/20 03:24:13;;;;;;;14.27;11.82;;;17.60;99.90;;;;;;5120696;27;20083;-66
2023/06/20 03:26:40;;;;;;;13.65;11.20;;;17.60;99.90;;;;;;5133134;27;20462;-65
2023/06/20 03:29:06;;;;;;;13.05;11.65;;;17.60;99.90;;;;;;5132531;27;20039;-65
2023/06/20 03:31:32;;;;;;;16.50;12.25;;;17.60;99.90;;;;;;5117398;28;20132;-67
2023/06/20 03:33:57;;;;;;;15.20;12.05;;;17.60;99.90;;;;;;5112245;27;20387;-66
2023/06/20 03:36:23;;;;;;;13.32;11.43;;;17.60;99.90;;;;;;5113617;27;20470;-65
2023/06/20 03:38:48;;;;;;;15.10;12.15;;;17.60;99.90;;;;;;5112263;27;20459;-66
2023/06/20 03:41:14;;;;;;;13.57;11.88;;;17.60;99.90;;;;;;5121906;27;20043;-65
2023/06/20 03:43:40;;;;;;;14.70;12.77;;;17.60;99.90;;;;;;5125096;27;20070;-65
2023/06/20 03:46:05;;;;;;;15.00;12.82;;;17.60;99.90;;;;;;5123009;27;20114;-67
2023/06/20 03:48:31;;;;;;;15.07;12.05;;;17.60;99.90;;;;;;5112608;27;20418;-66
2023/06/20 03:50:56;;;;;;;16.70;12.13;;;17.60;99.90;;;;;;5122201;27;20049;-65
2023/06/20 03:53:22;;;;;;;16.48;12.85;;;17.70;99.90;;;;;;5136278;27;20508;-65
2023/06/20 03:55:48;;;;;;;21.20;12.75;;;17.70;99.90;;;;;;5118760;27;20058;-65
2023/06/20 03:58:13;;;;;;;15.88;13.25;;;17.60;99.90;;;;;;5152978;27;20066;-65
2023/06/20 04:00:39;;;;;;;17.63;12.88;;;17.70;99.90;;;;;;5125369;27;20053;-66
2023/06/20 04:03:05;;;;;;;14.38;12.00;;;17.70;99.90;;;;;;5113977;27;20050;-65
2023/06/20 04:05:30;;;;;;;14.43;12.85;;;17.70;99.90;;;;;;5153896;27;20242;-65
2023/06/20 04:07:56;;;;;;;13.77;11.88;;;17.70;99.90;;;;;;5121134;27;20038;-66
2023/06/20 04:10:22;;;;;;;15.25;12.50;;;17.70;99.90;;;;;;5123153;27;20378;-66
2023/06/20 04:12:47;;;;;;;13.50;12.02;;;17.70;99.90;;;;;;5122291;27;20050;-65
2023/06/20 04:15:13;;;;;;;17.70;12.82;;;17.70;99.90;;;;;;5122796;27;20033;-66
2023/06/20 04:17:40;;;;;;;16.33;12.23;;;17.80;99.90;;;;;;5135503;27;20121;-64
2023/06/20 04:20:13;;;;;;;16.52;11.57;;;17.80;99.90;;;;;;5121760;27;20047;-65
2023/06/20 04:22:42;;;;;;;15.18;12.02;;;17.80;99.90;;;;;;5114749;27;20031;-66
2023/06/20 04:25:08;;;;;;;16.00;12.70;;;17.80;99.90;;;;;;5126528;27;20319;-65
2023/06/20 04:27:34;;;;;;;16.02;12.27;;;17.90;99.90;;;;;;5128059;27;20050;-65
2023/06/20 04:30:00;;;;;;;14.35;11.95;;;17.90;99.90;;;;;;5133760;27;20044;-67
2023/06/20 04:32:25;;;;;;;15.50;11.98;;;17.90;99.90;;;;;;5130059;27;20070;-65
2023/06/20 04:34:52;;;;;;;15.18;11.93;;;17.90;99.90;;;;;;5103910;27;20493;-66
2023/06/20 04:37:18;;;;;;;15.35;12.13;;;18.00;99.90;;;;;;5125176;27;20084;-65
2023/06/20 04:39:44;;;;;;;14.65;11.80;;;18.00;99.90;;;;;;5114550;27;20043;-65
2023/06/20 04:42:10;;;;;;;13.38;11.98;;;18.00;99.90;;;;;;5114621;27;20445;-65
2023/06/20 04:44:36;;;;;;;14.57;11.50;;;18.00;99.90;;;;;;5125667;27;20046;-66
2023/06/20 04:47:02;;;;;;;15.25;12.10;;;18.00;99.90;;;;;;5116572;27;20393;-65
2023/06/20 04:49:28;;;;;;;16.23;12.85;;;18.00;99.90;;;;;;5114807;27;20092;-66
2023/06/20 04:51:54;;;;;;;14.02;12.15;;;18.00;99.90;;;;;;5114381;27;20126;-67
2023/06/20 04:54:19;;;;;;;16.95;11.82;;;18.10;99.90;;;;;;5114632;27;20043;-65
2023/06/20 04:56:46;;;;;;;14.63;12.32;;;18.10;99.90;;;;;;5116745;27;20088;-66
2023/06/20 04:59:11;;;;;;;13.95;11.45;;;18.10;99.90;;;;;;5114677;27;20043;-65
2023/06/20 05:01:40;;;;;;;12.88;10.93;;;18.10;99.90;;;;;;5123776;27;20039;-65
2023/06/20 05:04:05;;;;;;;13.88;11.75;;;18.20;99.90;;;;;;5115217;27;20084;-65
2023/06/20 05:06:31;;;;;;;18.52;12.15;;;18.20;99.90;;;;;;5139534;27;20483;-66
2023/06/20 05:08:57;;;;;;;14.80;11.88;;;18.30;99.90;;;;;;5120132;27;20047;-65
2023/06/20 05:11:22;;;;;;;15.05;11.65;;;18.30;99.90;;;;;;5121491;27;20070;-67
2023/06/20 05:13:48;;;;;;;16.02;12.35;;;18.30;99.90;;;;;;5132075;27;20059;-66
2023/06/20 05:16:14;;;;;;;14.82;11.95;;;18.40;99.90;;;;;;5131423;27;20462;-65
2023/06/20 05:18:40;;;;;;;17.50;12.00;;;18.40;99.90;;;;;;5114152;27;20047;-67
2023/06/20 05:21:06;;;;;;;12.38;11.05;;;18.40;99.90;;;;;;5133668;27;20107;-65
2023/06/20 05:23:31;;;;;;;14.30;12.65;;;18.50;99.90;;;;;;5133134;27;20424;-67
2023/06/20 05:25:57;;;;;;;16.13;11.77;;;18.50;99.90;;;;;;5115950;27;20043;-68
2023/06/20 05:28:23;;;;;;;14.65;12.82;;;18.50;99.90;;;;;;5125550;27;20565;-65
2023/06/20 05:30:48;;;;;;;13.93;11.75;;;18.60;99.90;;;;;;5116844;27;20081;-65
2023/06/20 05:33:15;;;;;;;15.82;12.27;;;18.60;99.90;;;;;;5117179;27;20043;-66
2023/06/20 05:35:41;;;;;;;15.07;11.82;;;18.60;99.90;;;;;;5134843;27;20056;-64
2023/06/20 05:38:07;;;;;;;15.55;13.13;;;18.60;99.90;;;;;;5128903;27;20114;-66
2023/06/20 05:40:32;;;;;;;14.00;12.18;;;18.60;99.90;;;;;;5135925;27;20467;-66
2023/06/20 05:42:58;;;;;;;15.70;12.38;;;18.60;99.90;;;;;;5113786;27;20043;-66
2023/06/20 05:45:24;;;;;;;14.55;12.02;;;18.60;99.90;;;;;;5113958;27;20035;-66
2023/06/20 05:47:49;;;;;;;16.55;12.10;;;18.70;99.90;;;;;;5114568;27;20390;-67
2023/06/20 05:50:15;;;;;;;13.25;11.85;;;18.70;99.90;;;;;;5133927;27;20034;-66
2023/06/20 05:52:42;;;;;;;14.73;12.13;;;18.70;99.90;;;;;;5134211;27;20038;-65
2023/06/20 05:55:08;;;;;;;14.30;12.32;;;18.80;99.90;;;;;;5116222;27;20058;-66
2023/06/20 05:57:33;;;;;;;14.52;12.18;;;18.90;99.90;;;;;;5134219;27;20043;-65
2023/06/20 05:59:59;;;;;;;13.60;12.20;;;18.90;99.90;;;;;;5125761;27;20507;-66
2023/06/20 06:02:26;;;;;;;15.18;12.32;;;19.00;99.90;;;;;;5113597;27;20074;-66
2023/06/20 06:04:51;;;;;;;12.60;11.27;;;19.00;99.90;;;;;;5113436;27;20095;-65
2023/06/20 06:07:17;;;;;;;12.20;10.77;;;19.10;99.90;;;;;;5096010;27;20035;-67
2023/06/20 06:09:42;;;;;;;14.32;11.75;;;19.20;99.90;;;;;;5114236;27;20043;-65
2023/06/20 06:12:09;;;;;;;14.38;12.88;;;19.30;99.90;;;;;;5124345;27;20411;-66
2023/06/20 06:14:34;;;;;;;17.40;12.40;;;19.40;99.90;;;;;;5133462;27;20095;-66
2023/06/20 06:17:00;;;;;;;13.60;12.13;;;19.50;99.90;;;;;;5120811;27;20054;-66
2023/06/20 06:19:25;;;;;;;14.88;12.20;;;19.70;99.90;;;;;;5112852;27;20131;-65
2023/06/20 06:21:51;;;;;;;12.65;10.90;;;20.00;99.90;;;;;;5116228;27;20084;-66
2023/06/20 06:24:18;;;;;;;12.70;11.40;;;20.00;99.90;;;;;;5112939;27;20070;-66
2023/06/20 06:26:44;;;;;;;14.30;11.48;;;20.10;99.90;;;;;;5114309;27;20047;-64
2023/06/20 06:29:09;;;;;;;14.20;11.77;;;20.20;99.90;;;;;;5113995;27;20042;-67
2023/06/20 06:31:37;;;;;;;15.48;12.90;;;20.20;99.90;;;;;;5116162;27;20110;-65
2023/06/20 06:34:04;;;;;;;14.23;12.05;;;20.20;99.90;;;;;;5112902;27;20035;-66
2023/06/20 06:36:33;;;;;;;13.75;12.35;;;20.20;99.90;;;;;;5115368;27;20481;-66
2023/06/20 06:39:00;;;;;;;15.20;12.73;;;20.20;99.90;;;;;;5112555;27;20035;-66
2023/06/20 06:41:26;;;;;;;13.68;12.27;;;20.30;99.90;;;;;;5115691;27;20031;-65
2023/06/20 06:43:52;;;;;;;15.55;11.57;;;20.30;99.90;;;;;;5112729;27;20064;-67
2023/06/20 06:46:18;;;;;;;13.98;12.38;;;20.30;99.90;;;;;;5113135;27;20073;-66
2023/06/20 06:48:43;;;;;;;14.40;11.82;;;20.30;99.90;;;;;;5113025;27;20043;-65
2023/06/20 06:51:09;;;;;;;16.73;12.02;;;20.40;99.90;;;;;;5112969;27;20070;-65
2023/06/20 06:53:35;;;;;;;15.85;12.63;;;20.50;99.90;;;;;;5126980;27;20585;-65
2023/06/20 06:56:00;;;;;;;14.45;12.95;;;20.50;99.90;;;;;;5133314;27;20074;-65
2023/06/20 06:58:26;;;;;;;13.43;11.57;;;20.60;99.90;;;;;;5133277;27;20122;-65
2023/06/20 07:00:52;;;;;;;14.07;12.52;;;20.70;99.90;;;;;;5132982;27;20039;-65
2023/06/20 07:03:17;;;;;;;15.48;12.68;;;20.70;99.90;;;;;;5133037;27;20442;-65
2023/06/20 07:05:43;;;;;;;15.80;12.90;;;20.70;99.90;;;;;;5133478;27;20500;-66
2023/06/20 07:08:08;;;;;;;13.45;12.15;;;20.80;99.90;;;;;;5133755;27;20079;-65
2023/06/20 07:10:34;;;;;;;13.40;12.10;;;20.80;99.90;;;;;;5133101;27;20035;-66
2023/06/20 07:13:00;;;;;;;13.50;12.10;;;20.80;99.90;;;;;;5133079;27;20453;-65
2023/06/20 07:15:26;;;;;;;14.68;12.23;;;20.80;99.90;;;;;;5116550;27;20443;-66
2023/06/20 07:17:52;;;;;;;15.02;11.98;;;20.90;99.90;;;;;;5130958;27;20570;-65
2023/06/20 07:20:18;;;;;;;14.90;12.23;;;20.90;99.90;;;;;;5112067;27;20119;-67
2023/06/20 07:22:45;;;;;;;16.67;12.38;;;20.90;99.90;;;;;;5112475;27;20054;-67
2023/06/20 07:25:11;;;;;;;13.93;12.07;;;21.00;99.90;;;;;;5118009;27;20047;-67
2023/06/20 07:27:37;;;;;;;14.60;11.88;;;21.00;99.90;;;;;;5116648;27;20031;-66
2023/06/20 07:30:03;;;;;;;12.52;11.27;;;21.00;99.90;;;;;;5116715;27;20523;-67
2023/06/20 07:32:29;;;;;;;13.02;11.73;;;21.10;99.90;;;;;;5116473;27;20031;-67
2023/06/20 07:34:55;;;;;;;12.70;11.40;;;21.20;99.90;;;;;;5118657;27;20043;-66
2023/06/20 07:37:20;;;;;;;16.05;11.75;;;21.20;99.90;;;;;;5116726;27;20043;-66
2023/06/20 07:39:46;;;;;;;17.67;11.45;;;21.20;99.90;;;;;;5116119;27;20492;-65
2023/06/20 07:42:13;;;;;;;13.00;11.75;;;21.20;99.90;;;;;;5134920;27;20035;-66
2023/06/20 07:44:38;;;;;;;12.70;11.40;;;21.20;99.90;;;;;;5116618;27;20050;-66
2023/06/20 07:47:05;;;;;;;12.60;11.32;;;21.20;99.90;;;;;;5130270;27;20030;-66
2023/06/20 07:49:31;;;;;;;15.07;11.68;;;21.10;99.90;;;;;;5136773;27;20470;-66
2023/06/20 07:51:56;;;;;;;13.52;12.10;;;21.10;99.90;;;;;;5136283;27;20042;-66
2023/06/20 07:54:22;;;;;;;12.90;11.43;;;21.10;99.90;;;;;;5136448;27;20198;-65
2023/06/20 07:56:48;;;;;;;13.15;11.75;;;21.20;99.90;;;;;;5132559;27;20051;-65
2023/06/20 07:59:13;;;;;;;12.68;11.20;;;21.20;99.90;;;;;;5118451;27;20043;-66
2023/06/20 08:01:39;;;;;;;14.25;11.77;;;21.30;99.90;;;;;;5117879;27;20050;-65
2023/06/20 08:04:05;;;;;;;13.88;12.00;;;21.30;99.90;;;;;;5116553;27;20038;-67
2023/06/20 08:06:30;;;;;;;13.77;11.43;;;21.30;99.90;;;;;;5115322;27;20038;-67
2023/06/20 08:08:56;;;;;;;14.07;11.65;;;21.40;99.90;;;;;;5119129;27;20031;-65
2023/06/20 08:11:22;;;;;;;13.23;11.82;;;21.30;99.90;;;;;;5115391;27;20430;-66
2023/06/20 08:13:48;;;;;;;14.35;12.77;;;21.30;99.90;;;;;;5115516;27;20138;-66
2023/06/20 08:16:14;;;;;;;18.25;12.60;;;21.40;99.90;;;;;;5115114;27;20120;-65
2023/06/20 08:18:39;;;;;;;13.30;11.93;;;21.30;99.90;;;;;;5120261;27;20038;-67
2023/06/20 08:21:05;;;;;;;14.85;12.63;;;21.30;99.90;;;;;;5129982;27;20038;-65
2023/06/20 08:23:31;;;;;;;14.73;12.40;;;21.30;99.90;;;;;;5135630;27;20039;-65
2023/06/20 08:25:57;;;;;;;12.82;11.60;;;21.20;99.90;;;;;;5135326;27;20074;-67
2023/06/20 08:28:23;;;;;;;13.50;11.90;;;21.40;99.90;;;;;;5118470;27;20118;-66
2023/06/20 08:30:50;;;;;;;13.43;12.10;;;21.40;99.90;;;;;;5132952;27;20030;-65
2023/06/20 08:33:16;;;;;;;14.32;12.82;;;21.40;99.90;;;;;;5114074;27;20047;-67
2023/06/20 08:35:41;;;;;;;15.00;12.65;;;21.60;99.90;;;;;;5115093;27;20043;-67
2023/06/20 08:38:07;;;;;;;13.65;12.15;;;21.60;99.90;;;;;;5114892;27;20039;-66
2023/06/20 08:40:34;;;;;;;13.75;11.02;;;21.60;99.90;;;;;;5121866;27;20038;-65
2023/06/20 08:43:00;;;;;;;14.50;12.77;;;21.60;99.90;;;;;;5101968;27;20051;-67
2023/06/20 08:45:27;;;;;;;12.93;11.63;;;21.60;99.90;;;;;;5115071;27;20046;-66
2023/06/20 08:47:58;;;;;;;14.45;12.80;;;21.70;99.90;;;;;;5115335;27;20047;-65
2023/06/20 08:50:24;;;;;;;14.10;12.65;;;21.90;99.90;;;;;;5132703;27;20079;-67
2023/06/20 08:52:54;;;;;;;17.35;14.10;;;22.00;99.90;;;;;;5135032;27;20043;-66
2023/06/20 08:55:20;;;;;;;14.57;12.25;;;22.10;99.90;;;;;;5134056;27;20043;-66
2023/06/20 08:57:46;;;;;;;16.08;12.40;;;22.20;99.90;;;;;;5133524;27;20031;-67
2023/06/20 09:00:22;;;;;;;15.23;13.05;;;22.20;99.90;;;;;;5114782;27;20062;-65
2023/06/20 09:02:49;;;;;;;14.70;12.95;;;22.40;99.90;;;;;;5151526;27;20035;-67
2023/06/20 09:05:15;;;;;;;18.58;13.35;;;22.70;99.90;;;;;;5134767;27;20038;-65
2023/06/20 09:07:41;;;;;;;14.05;12.75;;;23.00;99.90;;;;;;5135349;27;20034;-68
2023/06/20 09:10:09;;;;;;;14.60;13.20;;;23.40;99.90;;;;;;5135019;27;20043;-66
2023/06/20 09:12:48;;;;;;;13.90;11.63;;;23.80;99.90;;;;;;5135016;27;20046;-66
2023/06/20 09:15:15;;;;;;;13.13;11.73;;;24.20;99.90;;;;;;5134521;27;20091;-66
2023/06/20 09:17:43;;;;;;;12.77;11.48;;;24.50;99.90;;;;;;5135291;27;20034;-66
2023/06/20 09:20:10;;;;;;;13.15;11.70;;;24.90;99.90;;;;;;5134598;27;20095;-67
2023/06/20 09:22:41;;;;;;;12.07;10.88;;;25.20;99.90;;;;;;5134686;27;20042;-66
2023/06/20 09:25:08;;;;;;;11.55;10.45;;;25.50;99.90;;;;;;5131497;27;20042;-66
2023/06/20 09:27:38;;;;;;;10.57;9.45;;;25.70;99.90;;;;;;5114186;27;20067;-66
2023/06/20 09:30:05;;;;;;;11.75;10.15;;;25.80;99.90;;;;;;5114047;27;20168;-66
2023/06/20 09:32:35;;;;;;;16.33;11.07;;;26.10;99.90;;;;;;5113842;27;20058;-65
2023/06/20 09:35:06;;;;;;;12.07;10.90;;;26.30;99.90;;;;;;5114286;27;20055;-66
2023/06/20 09:37:42;;;;;;;12.40;10.18;;;26.50;99.90;;;;;;5135017;27;20042;-66
2023/06/20 09:40:09;;;;;;;11.85;10.00;;;26.70;99.90;;;;;;5113999;27;20066;-66
2023/06/20 09:42:36;;;;;;;10.70;9.13;;;26.90;99.90;;;;;;5113577;27;20039;-65
2023/06/20 09:45:02;;;;;;;9.85;8.95;;;27.00;99.90;;;;;;5113974;27;20477;-66
2023/06/20 09:47:29;;;;;;;11.77;8.38;;;27.20;99.90;;;;;;5126916;27;20078;-67
2023/06/20 09:49:58;;;;;;;9.77;8.48;;;27.30;99.90;;;;;;5134129;27;20043;-65
2023/06/20 09:52:31;;;;;;;10.82;7.20;;;27.40;99.10;;;;;;5127038;27;20108;-65
2023/06/20 09:55:00;;;;;;;10.25;7.47;;;27.40;99.10;;;;;;5115637;27;20054;-67
2023/06/20 09:57:57;;;;;;;8.85;7.95;;;27.60;98.70;;;;;;5116537;27;20039;-67
2023/06/20 10:00:26;;;;;;;8.18;7.25;;;27.70;98.30;;;;;;5127433;27;20410;-66
2023/06/20 10:02:53;;;;;;;7.18;6.47;;;28.00;98.50;;;;;;5133685;27;20070;-66
2023/06/20 10:05:20;;;;;;;8.90;7.63;;;28.10;98.10;;;;;;5133774;27;20046;-66
2023/06/20 10:07:48;;;;;;;8.30;7.43;;;28.10;97.30;;;;;;5131640;27;20042;-66
2023/06/20 10:10:15;;;;;;;7.22;6.53;;;28.20;97.30;;;;;;5114334;27;20038;-67
2023/06/20 10:12:43;;;;;;;8.05;7.25;;;28.40;97.40;;;;;;5112873;27;20043;-65
2023/06/20 10:15:10;;;;;;;8.55;6.32;;;28.50;96.10;;;;;;5113185;27;20054;-65
2023/06/20 10:17:40;;;;;;;9.55;5.95;;;28.50;96.30;;;;;;5112974;27;20091;-67
2023/06/20 10:20:10;;;;;;;6.93;5.85;;;28.70;95.90;;;;;;5115486;27;20043;-66
2023/06/20 10:22:43;;;;;;;8.10;6.45;;;28.70;95.40;;;;;;5114958;27;20046;-66
2023/06/20 10:25:11;;;;;;;8.82;7.50;;;28.80;95.20;;;;;;5131406;27;20114;-65
2023/06/20 10:27:42;;;;;;;6.60;5.95;;;29.00;94.90;;;;;;5131481;27;20042;-67
2023/06/20 10:30:11;;;;;;;6.82;6.20;;;29.10;94.40;;;;;;5134716;27;20103;-66
2023/06/20 10:32:56;;;;;;;6.32;5.72;;;29.30;94.20;;;;;;5115693;27;20562;-66
2023/06/20 10:35:23;;;;;;;6.65;5.97;;;29.30;93.90;;;;;;5113321;27;20043;-67
2023/06/20 10:37:48;;;;;;;9.45;6.28;;;29.30;93.40;;;;;;5113045;27;20106;-66
2023/06/20 10:40:29;;;;;;;6.90;5.25;;;29.30;93.10;;;;;;5099987;27;20126;-66
2023/06/20 10:42:55;;;;;;;9.07;6.67;;;29.50;93.70;;;;;;5112905;27;20565;-67
2023/06/20 10:45:22;;;;;;;7.18;6.20;;;29.60;92.60;;;;;;5131384;27;20088;-65
2023/06/20 10:47:50;;;;;;;6.10;5.35;;;29.30;91.90;;;;;;5113176;27;20049;-66
2023/06/20 10:50:16;;;;;;;7.82;4.63;;;29.20;92.20;;;;;;5112844;27;20043;-66
2023/06/20 10:52:42;;;;;;;6.15;5.20;;;29.40;92.40;;;;;;5134483;27;20043;-66
2023/06/20 10:55:23;;;;;;;5.25;4.68;;;29.70;92.30;;;;;;5112690;27;20067;-67
2023/06/20 10:57:50;;;;;;;5.90;5.40;;;29.70;91.30;;;;;;5132498;27;20058;-67
2023/06/20 11:00:17;;;;;;;6.35;5.72;;;29.70;90.90;;;;;;5136567;27;20401;-66
2023/06/20 11:02:52;;;;;;;6.75;6.05;;;29.70;90.50;;;;;;5122504;27;20049;-66
2023/06/20 11:05:22;;;;;;;5.85;5.10;;;29.30;90.70;;;;;;5117238;27;20122;-66
2023/06/20 11:07:51;;;;;;;5.00;4.50;;;29.30;91.30;;;;;;5117122;27;20466;-66
2023/06/20 11:10:20;;;;;;;5.50;4.10;;;29.50;91.10;;;;;;5116777;27;20393;-67
2023/06/20 11:12:47;;;;;;;4.55;4.15;;;29.60;90.50;;;;;;5144384;27;20138;-66
2023/06/20 11:15:20;;;;;;;7.47;5.68;;;29.80;90.20;;;;;;5155902;27;20041;-66
2023/06/20 11:17:46;;;;;;;8.70;5.72;;;29.90;89.20;;;;;;5137114;27;20042;-66
2023/06/20 11:20:12;;;;;;;5.75;5.18;;;29.90;88.90;;;;;;5137386;27;20031;-67
2023/06/20 11:22:37;;;;;;;6.72;5.68;;;30.00;89.10;;;;;;5136735;27;20050;-66
2023/06/20 11:25:06;;;;;;;7.95;5.93;;;30.10;89.20;;;;;;5119166;27;20040;-66
2023/06/20 11:27:31;;;;;;;6.10;5.50;;;30.10;88.40;;;;;;5116433;27;20050;-66
2023/06/20 11:29:57;;;;;;;6.30;5.70;;;29.90;87.80;;;;;;5116697;27;20078;-67
2023/06/20 11:32:22;;;;;;;8.95;6.00;;;29.90;88.40;;;;;;5116831;27;20046;-67
2023/06/20 11:34:53;;;;;;;7.57;6.78;;;29.70;87.80;;;;;;5118272;27;20051;-66
2023/06/20 11:37:20;;;;;;;6.63;5.85;;;29.40;87.90;;;;;;5098593;27;20051;-66
2023/06/20 11:39:46;;;;;;;7.32;6.22;;;29.20;88.80;;;;;;5133950;27;20122;-66
2023/06/20 11:42:16;;;;;;;7.38;6.68;;;29.10;88.60;;;;;;5136753;27;20125;-67
2023/06/20 11:44:42;;;;;;;7.50;6.10;;;29.10;89.10;;;;;;5126123;27;20050;-65
2023/06/20 11:47:08;;;;;;;6.78;6.10;;;28.90;88.70;;;;;;5115689;27;20096;-66
2023/06/20 11:49:34;;;;;;;6.60;5.78;;;28.60;89.30;;;;;;5118088;27;20035;-65
2023/06/20 11:52:00;;;;;;;6.47;5.32;;;28.40;90.00;;;;;;5115509;27;20042;-66
2023/06/20 11:54:26;;;;;;;6.63;4.95;;;28.20;89.70;;;;;;5134118;27;20055;-65
2023/06/20 11:56:52;;;;;;;5.20;4.57;;;28.10;90.20;;;;;;5115455;27;20046;-66
2023/06/20 11:59:25;;;;;;;9.63;4.80;;;28.00;90.10;;;;;;5115914;27;20023;-67
2023/06/20 12:01:51;;;;;;;6.43;4.70;;;28.10;89.80;;;;;;5119698;27;20043;-66
2023/06/20 12:04:21;;;;;;;5.50;5.00;;;28.10;89.80;;;;;;5115182;27;20126;-66
2023/06/20 12:06:52;;;;;;;6.97;5.05;;;27.90;89.00;;;;;;5098346;27;20047;-66
2023/06/20 12:09:18;;;;;;;6.43;4.55;;;27.90;89.90;;;;;;5133064;27;20097;-66
2023/06/20 12:11:48;;;;;;;5.85;5.13;;;27.80;89.70;;;;;;5124794;27;20071;-66
2023/06/20 12:14:15;;;;;;;5.95;5.10;;;27.70;90.10;;;;;;5121836;27;20071;-66
2023/06/20 12:16:41;;;;;;;5.35;4.85;;;27.80;90.30;;;;;;5097860;27;20046;-66
2023/06/20 12:19:07;;;;;;;6.25;4.82;;;28.00;90.30;;;;;;5133816;27;20525;-67
2023/06/20 12:21:33;;;;;;;6.70;4.80;;;28.20;90.20;;;;;;5119578;27;20050;-66
2023/06/20 12:23:58;;;;;;;6.53;4.47;;;28.40;90.40;;;;;;5116721;27;20031;-66
2023/06/20 12:26:24;;;;;;;5.07;4.47;;;28.40;90.60;;;;;;5115836;27;20027;-66
2023/06/20 12:28:50;;;;;;;5.32;4.28;;;28.50;90.60;;;;;;5115320;27;20172;-66
2023/06/20 12:31:15;;;;;;;8.52;4.88;;;28.70;90.40;;;;;;5097833;27;20067;-65
2023/06/20 12:33:41;;;;;;;4.75;4.35;;;28.50;90.10;;;;;;5135544;27;20516;-65
2023/06/20 12:36:08;;;;;;;4.53;4.05;;;28.30;89.10;;;;;;5115380;27;20027;-66